Time;durP1;ratioP1;P1;durP2;ratioP2;P2;SDS_P1;SDS_P2;PMS_P1;PMS_P2;Temp;Humidity;BMP_temperature;BMP_pressure;BME280_temperature;BME280_humidity;BME280_pressure;Samples;Min_cycle;Max_cycle;Signal;HPM_P1;HPM_P2
2022/06/26 00:02:31;;;;;;;7.28;3.45;;;;;;;19.16;70.21;99581.31;5041082;28;20466;-56
2022/06/26 00:05:15;;;;;;;8.63;4.50;;;;;;;19.16;70.21;99593.56;5041146;28;20469;-56
2022/06/26 00:08:02;;;;;;;5.85;3.20;;;;;;;19.16;70.04;99586.56;5056292;28;20126;-55
2022/06/26 00:10:46;;;;;;;5.75;3.67;;;;;;;19.15;70.19;99591.88;5055620;28;20072;-55
2022/06/26 00:13:30;;;;;;;;;;;;;;;19.12;70.12;99595.41;5056548;28;20116;-56
2022/06/26 00:16:14;;;;;;;7.13;3.20;;;;;;;19.11;70.34;99598.94;5055959;28;19966;-55
2022/06/26 00:18:58;;;;;;;7.15;3.33;;;;;;;19.10;70.23;99597.22;5055532;28;20048;-56
2022/06/26 00:21:42;;;;;;;8.27;4.03;;;;;;;19.12;70.42;99603.28;5040539;28;20106;-55
2022/06/26 00:24:26;;;;;;;7.60;3.67;;;;;;;19.11;70.70;99612.06;5055941;28;20050;-55
2022/06/26 00:27:11;;;;;;;6.90;3.50;;;;;;;19.11;70.45;99616.47;5056041;28;20072;-55
2022/06/26 00:29:55;;;;;;;9.73;4.07;;;;;;;19.12;70.33;99615.59;5055160;28;20114;-56
2022/06/26 00:32:40;;;;;;;5.10;3.55;;;;;;;19.11;70.17;99619.97;5054780;28;20102;-55
2022/06/26 00:35:23;;;;;;;4.85;3.20;;;;;;;19.12;70.29;99624.31;5055570;28;20471;-56
2022/06/26 00:38:07;;;;;;;5.90;3.20;;;;;;;19.11;70.36;99622.59;5055942;28;20106;-59
2022/06/26 00:40:51;;;;;;;6.15;3.88;;;;;;;19.09;70.42;99627.00;5055555;28;20108;-56
2022/06/26 00:43:35;;;;;;;7.35;3.90;;;;;;;19.08;70.30;99635.78;5055427;28;20478;-56
2022/06/26 00:46:24;;;;;;;6.03;3.85;;;;;;;19.09;70.29;99636.66;5055761;28;20105;-57
2022/06/26 00:49:08;;;;;;;6.43;3.13;;;;;;;19.06;70.37;99640.25;5040167;28;20048;-57
2022/06/26 00:51:54;;;;;;;5.78;2.90;;;;;;;19.05;70.30;99643.75;5040445;28;20116;-57
2022/06/26 00:54:38;;;;;;;3.42;2.83;;;;;;;19.04;70.35;99638.53;5040545;28;20511;-55
2022/06/26 00:57:22;;;;;;;8.32;3.92;;;;;;;19.02;70.36;99635.97;5040214;28;20051;-55
2022/06/26 01:00:09;;;;;;;6.95;3.50;;;;;;;19.01;70.42;99644.75;5055078;28;20411;-55
2022/06/26 01:02:53;;;;;;;5.05;3.22;;;;;;;19.00;70.39;99658.75;5039809;28;20128;-57
2022/06/26 01:05:39;;;;;;;5.82;3.13;;;;;;;18.99;70.51;99664.91;5054626;28;20182;-57
2022/06/26 01:08:23;;;;;;;8.27;3.30;;;;;;;18.98;70.40;99658.81;5055261;28;20511;-57
2022/06/26 01:11:17;;;;;;;6.70;3.13;;;;;;;18.97;70.25;99648.34;5054662;28;20124;-57
2022/06/26 01:14:01;;;;;;;5.85;2.90;;;;;;;18.93;70.39;99654.53;5055247;28;20133;-57
2022/06/26 01:16:47;;;;;;;6.30;3.17;;;;;;;18.89;70.46;99645.88;5039506;28;20052;-57
2022/06/26 01:19:31;;;;;;;6.57;3.13;;;;;;;18.88;70.33;99652.00;5039537;28;20125;-57
2022/06/26 01:22:15;;;;;;;3.97;2.85;;;;;;;18.86;70.45;99649.44;5054494;28;20107;-57
2022/06/26 01:24:59;;;;;;;4.53;3.20;;;;;;;18.87;70.07;99668.66;5054647;28;20163;-57
2022/06/26 01:27:43;;;;;;;3.63;2.30;;;;;;;18.79;70.41;99671.47;5054437;28;20056;-57
2022/06/26 01:30:27;;;;;;;6.95;3.20;;;;;;;18.79;70.35;99652.25;5054349;28;20520;-57
2022/06/26 01:33:11;;;;;;;3.65;2.50;;;;;;;18.75;70.46;99659.34;5054515;28;20462;-56
2022/06/26 01:35:55;;;;;;;2.63;2.20;;;;;;;18.76;70.25;99661.06;5054415;28;20098;-55
2022/06/26 01:38:39;;;;;;;6.25;2.38;;;;;;;18.74;70.11;99664.63;5054192;28;20086;-57
2022/06/26 01:41:23;;;;;;;4.97;2.40;;;;;;;18.72;70.17;99665.50;5054455;28;20562;-56
2022/06/26 01:44:09;;;;;;;3.88;2.03;;;;;;;18.71;70.37;99657.69;5054401;28;20052;-55
2022/06/26 01:46:53;;;;;;;3.88;2.20;;;;;;;18.71;70.28;99657.69;5039567;28;20142;-55
2022/06/26 01:49:37;;;;;;;2.80;1.88;;;;;;;18.72;70.51;99664.66;5054233;28;20048;-55
2022/06/26 01:52:21;;;;;;;3.05;2.13;;;;;;;18.70;70.11;99669.09;5039025;28;20040;-56
2022/06/26 01:55:05;;;;;;;4.68;2.10;;;;;;;18.70;70.05;99684.81;5054052;28;20052;-55
2022/06/26 01:57:49;;;;;;;2.55;1.90;;;;;;;18.72;69.92;99683.03;5053462;28;20087;-55
2022/06/26 02:00:36;;;;;;;6.55;2.30;;;;;;;18.69;69.99;99688.34;5054183;28;20091;-56
2022/06/26 02:03:22;;;;;;;3.88;2.20;;;;;;;18.68;70.01;99670.88;5038576;28;20060;-55
2022/06/26 02:06:06;;;;;;;3.17;2.10;;;;;;;18.69;69.91;99660.31;5038826;28;20515;-58
2022/06/26 02:08:51;;;;;;;4.65;2.22;;;;;;;18.69;70.10;99662.09;5054219;28;20511;-55
2022/06/26 02:14:37;;;;;;;4.50;1.83;;;;;;;18.70;69.90;99667.31;5054259;28;20507;-55
2022/06/26 02:17:21;;;;;;;4.32;2.22;;;;;;;18.73;69.92;99676.88;5053449;28;20457;-57
2022/06/26 02:20:06;;;;;;;2.75;2.20;;;;;;;18.73;69.93;99684.75;5053653;28;20056;-57
2022/06/26 02:22:51;;;;;;;4.35;2.00;;;;;;;18.74;69.91;99688.22;5038424;28;20526;-57
2022/06/26 02:25:35;;;;;;;1.90;1.80;;;;;;;18.76;69.95;99683.81;5053807;28;20056;-57
2022/06/26 02:28:19;;;;;;;2.78;1.75;;;;;;;18.75;70.12;99680.34;5053480;28;20105;-55
2022/06/26 02:31:03;;;;;;;4.55;2.40;;;;;;;18.75;69.80;99666.34;5053399;28;20051;-56
2022/06/26 02:33:46;;;;;;;4.82;2.13;;;;;;;18.75;69.74;99659.34;5053650;28;20159;-57
2022/06/26 02:36:30;;;;;;;3.95;2.40;;;;;;;18.76;69.81;99663.69;5038623;28;20499;-56
2022/06/26 02:39:14;;;;;;;4.25;2.15;;;;;;;18.77;69.77;99664.53;5053006;28;20561;-56
2022/06/26 02:41:58;;;;;;;4.70;1.80;;;;;;;18.75;69.76;99667.22;5053664;28;20051;-55
2022/06/26 02:44:42;;;;;;;5.55;2.08;;;;;;;18.75;69.84;99672.47;5053360;28;20048;-56
2022/06/26 02:47:26;;;;;;;4.57;1.95;;;;;;;18.74;69.85;99670.75;5038473;28;20052;-55
2022/06/26 02:50:10;;;;;;;2.22;1.88;;;;;;;18.75;69.76;99685.59;5053133;28;20143;-57
2022/06/26 02:52:54;;;;;;;;;;;;;;;18.72;69.73;99677.78;5053852;28;20137;-55
2022/06/26 02:55:38;;;;;;;5.80;2.10;;;;;;;18.70;69.94;99676.94;5054766;28;19966;-56
2022/06/26 02:58:24;;;;;;;5.85;2.25;;;;;;;18.70;69.80;99676.94;5057287;28;20052;-56
2022/06/26 03:01:08;;;;;;;5.22;2.20;;;;;;;18.69;69.52;99689.19;5057096;28;20124;-55
2022/06/26 03:03:52;;;;;;;5.45;2.20;;;;;;;18.68;69.58;99700.63;5057444;28;20173;-56
2022/06/26 03:06:37;;;;;;;5.28;2.28;;;;;;;18.67;69.65;99704.16;5057050;28;20051;-56
2022/06/26 03:09:21;;;;;;;3.10;2.00;;;;;;;18.66;69.45;99701.53;5057370;28;20048;-56
2022/06/26 03:12:05;;;;;;;6.50;2.03;;;;;;;18.65;69.55;99705.06;5057023;28;20110;-56
2022/06/26 03:14:49;;;;;;;5.30;2.33;;;;;;;18.64;69.58;99713.81;5042318;28;20123;-56
2022/06/26 03:17:33;;;;;;;5.88;2.53;;;;;;;18.63;69.61;99709.47;5057150;28;20044;-55
2022/06/26 03:20:19;;;;;;;3.58;2.10;;;;;;;18.62;69.50;99711.25;5056889;28;20136;-56
2022/06/26 03:23:06;;;;;;;5.05;2.10;;;;;;;18.62;69.26;99710.38;5042280;28;20048;-56
2022/06/26 03:25:50;;;;;;;7.30;2.45;;;;;;;18.62;69.59;99713.00;5056552;28;20194;-56
2022/06/26 03:28:34;;;;;;;5.68;2.10;;;;;;;18.61;69.42;99708.66;5042046;28;20572;-56
2022/06/26 03:31:18;;;;;;;3.70;2.10;;;;;;;18.60;69.51;99710.41;5057153;28;20118;-55
2022/06/26 03:34:02;;;;;;;4.40;2.33;;;;;;;18.61;69.44;99711.28;5057070;28;20044;-56
2022/06/26 03:36:46;;;;;;;5.38;2.35;;;;;;;18.59;69.30;99710.47;5056872;28;20460;-55
2022/06/26 03:39:32;;;;;;;4.43;2.30;;;;;;;18.59;69.51;99713.94;5056782;28;20045;-55
2022/06/26 03:42:15;;;;;;;5.10;2.10;;;;;;;18.59;69.56;99711.31;5041775;28;20064;-57
2022/06/26 03:45:01;;;;;;;4.30;2.10;;;;;;;18.58;69.23;99708.72;5056526;28;20052;-57
2022/06/26 03:47:45;;;;;;;6.18;2.50;;;;;;;18.56;69.31;99707.00;5056719;28;20063;-57
2022/06/26 03:50:29;;;;;;;4.57;2.05;;;;;;;18.56;69.32;99706.13;5056772;28;20087;-57
2022/06/26 03:53:13;;;;;;;6.75;3.00;;;;;;;18.54;69.43;99714.03;5056540;28;20419;-56
2022/06/26 03:55:57;;;;;;;3.97;1.92;;;;;;;18.53;69.42;99722.81;5056353;28;20075;-56
2022/06/26 03:58:41;;;;;;;4.32;2.20;;;;;;;18.53;69.28;99724.59;5055948;28;20427;-56
2022/06/26 04:01:25;;;;;;;3.17;2.10;;;;;;;18.51;69.25;99724.59;5056373;28;20048;-56
2022/06/26 04:04:09;;;;;;;5.22;2.03;;;;;;;18.52;69.19;99734.19;5041060;28;20044;-55
2022/06/26 04:06:53;;;;;;;5.32;1.83;;;;;;;18.51;69.10;99726.38;5056432;28;20401;-56
2022/06/26 04:09:38;;;;;;;3.85;2.08;;;;;;;18.51;69.28;99732.47;5056877;28;20048;-56
2022/06/26 04:12:22;;;;;;;7.32;2.40;;;;;;;18.50;69.29;99733.38;5056074;28;20040;-56
2022/06/26 04:15:07;;;;;;;1.75;1.58;;;;;;;18.50;69.35;99741.25;5055923;28;20087;-56
2022/06/26 04:17:51;;;;;;;4.32;2.63;;;;;;;18.49;69.08;99741.28;5040330;28;20114;-56
2022/06/26 04:20:35;;;;;;;2.33;1.95;;;;;;;18.49;69.23;99746.53;5055853;28;20545;-57
2022/06/26 04:23:19;;;;;;;3.95;1.90;;;;;;;18.48;69.23;99764.00;5055770;28;20113;-57
2022/06/26 04:26:05;;;;;;;4.35;1.90;;;;;;;18.46;69.25;99760.56;5055673;28;20047;-58
2022/06/26 04:28:49;;;;;;;5.80;2.15;;;;;;;18.46;69.21;99750.06;5040576;28;20048;-56
2022/06/26 04:31:33;;;;;;;7.18;2.20;;;;;;;18.42;69.22;99744.03;5055564;28;20493;-56
2022/06/26 04:34:18;;;;;;;5.25;2.65;;;;;;;18.41;69.35;99744.06;5056020;28;20091;-56
2022/06/26 04:37:04;;;;;;;6.00;2.00;;;;;;;18.41;69.09;99739.66;5055190;28;20083;-55
2022/06/26 04:39:48;;;;;;;6.50;2.42;;;;;;;18.42;69.18;99741.41;5055101;28;20071;-56
2022/06/26 04:42:32;;;;;;;3.20;1.92;;;;;;;18.42;69.29;99728.28;5040012;28;20048;-56
2022/06/26 04:45:16;;;;;;;5.75;2.38;;;;;;;18.42;69.21;99741.41;5040623;28;20549;-56
2022/06/26 04:48:00;;;;;;;8.23;2.72;;;;;;;18.42;69.22;99740.56;5055270;28;20068;-56
2022/06/26 04:50:44;;;;;;;3.10;2.03;;;;;;;18.42;69.13;99751.03;5055481;28;20054;-56
2022/06/26 04:53:27;;;;;;;4.15;2.17;;;;;;;18.38;69.14;99752.84;5055347;28;20048;-57
2022/06/26 04:56:13;;;;;;;4.72;2.45;;;;;;;18.39;69.21;99751.94;5055297;28;20055;-57
2022/06/26 04:58:57;;;;;;;3.75;2.30;;;;;;;18.36;69.25;99759.03;5055201;28;20456;-57
2022/06/26 05:01:41;;;;;;;3.58;1.95;;;;;;;18.37;69.02;99758.13;5054350;28;20059;-57
2022/06/26 05:04:26;;;;;;;3.78;2.38;;;;;;;18.37;68.96;99761.63;5055662;28;20098;-57
2022/06/26 05:07:10;;;;;;;3.67;2.40;;;;;;;18.37;68.95;99773.88;5054798;28;20081;-57
2022/06/26 05:09:54;;;;;;;2.88;2.17;;;;;;;18.36;69.23;99772.16;5054563;28;20044;-56
2022/06/26 05:12:37;;;;;;;7.57;2.67;;;;;;;18.36;69.09;99772.16;5054503;28;20094;-57
2022/06/26 05:15:22;;;;;;;4.25;2.22;;;;;;;18.35;69.07;99781.78;5039911;28;20569;-57
2022/06/26 05:18:06;;;;;;;5.78;2.42;;;;;;;18.36;68.94;99795.75;5053976;28;20075;-56
2022/06/26 05:20:50;;;;;;;6.32;2.80;;;;;;;18.35;69.11;99787.03;5054712;28;20099;-56
2022/06/26 05:23:36;;;;;;;5.03;2.00;;;;;;;18.34;69.15;99782.69;5039925;28;20043;-56
2022/06/26 05:26:20;;;;;;;6.97;2.65;;;;;;;18.35;69.23;99778.28;5054572;28;20044;-56
2022/06/26 05:29:05;;;;;;;6.65;2.00;;;;;;;18.33;68.93;99793.19;5054593;28;20047;-56
2022/06/26 05:31:50;;;;;;;3.80;2.22;;;;;;;18.34;69.10;99810.66;5039523;28;20048;-55
2022/06/26 05:34:33;;;;;;;3.78;2.50;;;;;;;18.34;69.13;99822.03;5054209;28;20048;-55
2022/06/26 05:37:17;;;;;;;6.57;2.53;;;;;;;18.31;69.11;99816.84;5054073;28;20114;-55
2022/06/26 05:40:02;;;;;;;5.55;3.17;;;;;;;18.31;69.18;99811.59;5055008;28;20136;-55
2022/06/26 05:42:46;;;;;;;3.28;2.13;;;;;;;18.30;68.94;99822.97;5039243;28;20068;-55
2022/06/26 05:45:30;;;;;;;5.82;2.20;;;;;;;18.30;69.00;99820.34;5053978;28;20134;-56
2022/06/26 05:48:14;;;;;;;3.50;2.03;;;;;;;18.28;69.13;99814.28;5054482;28;20067;-57
2022/06/26 05:50:58;;;;;;;5.88;2.45;;;;;;;18.26;69.08;99822.19;5054098;28;20075;-55
2022/06/26 05:53:42;;;;;;;5.70;2.75;;;;;;;18.28;69.01;99810.81;5054551;28;20051;-57
2022/06/26 05:56:26;;;;;;;3.35;2.20;;;;;;;18.28;68.82;99805.56;5038965;28;20091;-56
2022/06/26 05:59:10;;;;;;;8.25;2.75;;;;;;;18.26;69.08;99803.81;5054123;28;20095;-56
2022/06/26 06:01:54;;;;;;;3.38;2.13;;;;;;;18.25;69.12;99812.59;5038629;28;20055;-57
2022/06/26 06:04:39;;;;;;;4.57;2.22;;;;;;;18.23;69.00;99810.88;5053607;28;20107;-55
2022/06/26 06:07:23;;;;;;;2.92;2.22;;;;;;;18.26;69.00;99813.44;5053907;28;20107;-55
2022/06/26 06:10:09;;;;;;;4.15;2.03;;;;;;;18.26;69.14;99808.19;5053915;28;20122;-55
2022/06/26 06:12:54;;;;;;;3.03;1.95;;;;;;;18.25;68.99;99819.56;5038654;28;20044;-55
2022/06/26 06:15:38;;;;;;;4.35;2.20;;;;;;;18.23;68.91;99810.88;5039130;28;20072;-55
2022/06/26 06:18:21;;;;;;;8.07;2.47;;;;;;;18.22;68.83;99827.50;5053415;28;20522;-55
2022/06/26 06:21:05;;;;;;;2.28;2.05;;;;;;;18.20;68.92;99824.91;5053540;28;20538;-56
2022/06/26 06:23:49;;;;;;;8.30;2.83;;;;;;;18.20;68.98;99831.94;5053880;28;20087;-55
2022/06/26 06:26:34;;;;;;;4.72;2.45;;;;;;;18.20;69.11;99856.38;5053900;28;20059;-56
2022/06/26 06:29:18;;;;;;;;;;;;;;;18.18;68.85;99881.78;5038632;28;20056;-56
2022/06/26 06:32:03;;;;;;;6.40;2.03;;;;;;;18.16;68.98;99887.94;5038138;28;19962;-57
2022/06/26 06:34:48;;;;;;;3.85;1.92;;;;;;;18.17;68.88;99884.44;5038800;28;20541;-56
2022/06/26 06:37:34;;;;;;;4.38;2.25;;;;;;;18.19;68.82;99899.25;5053469;28;20052;-55
2022/06/26 06:40:18;;;;;;;3.47;2.15;;;;;;;18.16;68.91;99896.66;5053589;28;20126;-55
2022/06/26 06:43:02;;;;;;;4.20;2.30;;;;;;;18.18;68.91;99900.13;5053507;28;20044;-56
2022/06/26 06:45:47;;;;;;;2.03;1.83;;;;;;;18.18;68.90;99894.88;5053706;28;20052;-56
2022/06/26 06:48:31;;;;;;;3.30;2.38;;;;;;;18.15;68.78;99889.69;5053550;28;20128;-56
2022/06/26 06:51:15;;;;;;;3.65;2.22;;;;;;;18.14;68.86;99906.31;5053594;28;20056;-56
2022/06/26 06:53:59;;;;;;;4.85;2.28;;;;;;;18.15;68.83;99904.56;5053687;28;20048;-55
2022/06/26 06:56:43;;;;;;;7.35;2.20;;;;;;;18.13;68.75;99907.22;5053409;28;20095;-56
2022/06/26 06:59:27;;;;;;;2.20;1.90;;;;;;;18.14;68.80;99914.19;5038316;28;20094;-55
2022/06/26 07:02:11;;;;;;;3.17;2.03;;;;;;;18.14;68.78;99916.81;5052994;28;20459;-55
2022/06/26 07:04:54;;;;;;;3.45;2.05;;;;;;;18.14;68.85;99918.56;5053179;28;20411;-56
2022/06/26 07:07:39;;;;;;;4.10;2.38;;;;;;;18.14;68.75;99923.81;5053363;28;20475;-55
2022/06/26 07:10:23;;;;;;;8.18;2.28;;;;;;;18.15;68.74;99921.16;5052714;28;20043;-57
2022/06/26 07:13:10;;;;;;;3.83;2.63;;;;;;;18.14;68.96;99924.66;5037630;28;20052;-56
2022/06/26 07:15:54;;;;;;;3.30;2.17;;;;;;;18.13;68.82;99936.06;5052842;28;20131;-55
2022/06/26 07:18:38;;;;;;;3.88;2.10;;;;;;;18.13;68.98;99943.94;5052783;28;20487;-55
2022/06/26 07:21:22;;;;;;;8.52;2.80;;;;;;;18.10;68.79;99938.75;5052780;28;20051;-56
2022/06/26 07:24:10;;;;;;;7.30;2.30;;;;;;;18.09;68.77;99929.16;5052901;28;20043;-55
2022/06/26 07:26:54;;;;;;;3.65;2.33;;;;;;;18.08;68.71;99917.78;5037967;28;20052;-55
2022/06/26 07:29:39;;;;;;;5.40;2.60;;;;;;;18.07;68.85;99929.16;5052668;28;20056;-55
2022/06/26 07:32:23;;;;;;;4.38;2.28;;;;;;;18.08;68.89;99940.53;5037654;28;20048;-56
2022/06/26 07:35:07;;;;;;;6.15;2.50;;;;;;;18.08;68.81;99946.63;5053060;28;20124;-55
2022/06/26 07:37:51;;;;;;;8.35;2.60;;;;;;;18.09;68.72;99943.09;5037442;28;20091;-55
2022/06/26 07:40:35;;;;;;;3.88;2.17;;;;;;;18.07;68.77;99947.50;5037536;28;20132;-55
2022/06/26 07:43:21;;;;;;;5.20;2.50;;;;;;;18.08;68.80;99938.75;5041804;28;20045;-55
2022/06/26 07:46:05;;;;;;;4.25;2.35;;;;;;;18.07;68.86;99937.03;5056691;28;20051;-55
2022/06/26 07:48:49;;;;;;;5.85;2.42;;;;;;;18.06;68.90;99923.94;5040978;28;20044;-56
2022/06/26 07:51:34;;;;;;;6.43;2.85;;;;;;;18.05;68.82;99930.09;5056486;28;20107;-55
2022/06/26 07:54:19;;;;;;;3.63;2.33;;;;;;;18.06;68.83;99947.53;5041780;28;20043;-55
2022/06/26 07:57:03;;;;;;;9.82;3.25;;;;;;;18.03;69.18;99939.72;5055930;28;20068;-55
2022/06/26 07:59:47;;;;;;;3.80;2.53;;;;;;;18.04;68.62;99941.47;5056082;28;20095;-55
2022/06/26 08:02:31;;;;;;;4.53;2.35;;;;;;;18.06;68.75;99952.78;5056026;28;20522;-56
2022/06/26 08:05:15;;;;;;;6.07;2.33;;;;;;;18.04;68.85;99949.31;5041138;28;20130;-57
2022/06/26 08:08:00;;;;;;;;;;;;;;;18.03;68.79;99943.22;5056895;28;20044;-56
2022/06/26 08:10:44;;;;;;;5.13;2.80;;;;;;;18.04;68.82;99954.56;5041405;28;19922;-57
2022/06/26 08:13:28;;;;;;;3.40;2.47;;;;;;;18.05;68.82;99954.56;5055737;28;20099;-57
2022/06/26 08:16:12;;;;;;;4.60;2.72;;;;;;;18.06;68.88;99940.53;5055742;28;20072;-57
2022/06/26 08:18:56;;;;;;;6.72;2.67;;;;;;;18.06;68.75;99939.69;5056026;28;20106;-56
2022/06/26 08:24:43;;;;;;;4.30;2.47;;;;;;;18.05;68.91;99949.31;5055422;28;20051;-57
2022/06/26 08:27:27;;;;;;;4.93;2.63;;;;;;;18.06;68.88;99950.16;5056001;28;20056;-57
2022/06/26 08:30:11;;;;;;;4.03;2.40;;;;;;;18.08;68.80;99943.16;5055828;28;20128;-57
2022/06/26 08:32:58;;;;;;;3.88;2.40;;;;;;;18.07;68.92;99933.53;5055523;28;20043;-57
2022/06/26 08:35:42;;;;;;;4.10;2.63;;;;;;;18.04;68.73;99921.38;5055579;28;20067;-57
2022/06/26 08:38:27;;;;;;;6.22;3.00;;;;;;;18.05;68.73;99932.69;5055385;28;20526;-57
2022/06/26 08:41:12;;;;;;;4.18;2.95;;;;;;;18.05;68.81;99923.09;5055535;28;20507;-57
2022/06/26 08:43:58;;;;;;;;;;;;;;;18.04;68.86;99926.59;5055885;28;20043;-57
2022/06/26 08:46:45;;;;;;;4.97;2.25;;;;;;;18.05;68.79;99941.44;5040359;28;19923;-56
2022/06/26 08:49:29;;;;;;;7.15;3.13;;;;;;;18.04;68.76;99944.97;5055409;28;20475;-57
2022/06/26 08:52:18;;;;;;;8.40;2.45;;;;;;;18.04;68.80;99941.47;5055712;28;20044;-57
2022/06/26 08:55:04;;;;;;;5.57;3.08;;;;;;;18.01;69.15;99945.00;5040021;28;20076;-57
2022/06/26 08:57:49;;;;;;;3.28;2.35;;;;;;;18.02;68.79;99953.72;5039677;28;20099;-57
2022/06/26 09:00:33;;;;;;;4.82;2.97;;;;;;;18.02;68.83;99948.47;5055725;28;20047;-57
2022/06/26 09:03:17;;;;;;;5.82;2.95;;;;;;;18.00;68.85;99948.50;5055435;28;20060;-57
2022/06/26 09:06:02;;;;;;;5.55;2.92;;;;;;;18.02;68.92;99957.22;5054748;28;20063;-57
2022/06/26 09:08:52;;;;;;;7.75;3.72;;;;;;;17.99;68.90;99966.88;5040222;28;20052;-57
2022/06/26 09:11:39;;;;;;;4.15;2.75;;;;;;;17.99;68.72;99964.25;5055068;28;20044;-57
2022/06/26 09:14:25;;;;;;;9.52;3.63;;;;;;;18.00;68.73;99952.88;5054759;28;20467;-56
2022/06/26 09:17:09;;;;;;;6.65;3.40;;;;;;;18.01;68.67;99967.72;5054904;28;20091;-57
2022/06/26 09:19:55;;;;;;;10.15;3.83;;;;;;;18.00;68.42;99974.75;5040184;28;20055;-57
2022/06/26 09:22:51;;;;;;;7.90;3.47;;;;;;;17.98;68.54;99983.53;5039984;28;20111;-56
2022/06/26 09:25:43;;;;;;;7.88;3.17;;;;;;;17.98;68.65;99983.53;5039519;28;20102;-57
2022/06/26 09:28:28;;;;;;;8.15;3.22;;;;;;;17.96;68.74;99984.38;5054891;28;20095;-56
2022/06/26 09:31:19;;;;;;;4.15;3.10;;;;;;;17.98;68.65;99979.13;5054190;28;20459;-56
2022/06/26 09:34:05;;;;;;;7.18;2.83;;;;;;;17.95;68.78;99980.03;5039595;28;20120;-55
2022/06/26 09:37:01;;;;;;;5.63;2.88;;;;;;;17.96;68.69;99983.50;5039099;28;20048;-58
2022/06/26 09:39:46;;;;;;;14.75;3.42;;;;;;;17.94;68.64;99986.16;5039138;28;20106;-55
2022/06/26 09:42:34;;;;;;;12.02;3.40;;;;;;;17.95;68.44;99987.00;5039479;28;20048;-57
2022/06/26 09:45:18;;;;;;;3.83;2.30;;;;;;;17.95;68.83;99989.63;5039543;28;20048;-56
2022/06/26 09:48:03;;;;;;;9.48;2.60;;;;;;;17.94;68.91;100006.25;5054056;28;20526;-58
2022/06/26 09:50:48;;;;;;;6.78;2.85;;;;;;;17.93;68.88;100007.13;5054226;28;20059;-55
2022/06/26 09:53:32;;;;;;;6.18;2.72;;;;;;;17.95;68.91;100010.59;5039032;28;20558;-57
2022/06/26 09:56:17;;;;;;;4.82;2.75;;;;;;;17.94;68.89;100007.13;5053704;28;20072;-56
2022/06/26 09:59:05;;;;;;;3.47;2.45;;;;;;;17.95;68.92;100006.25;5039153;28;20455;-55
2022/06/26 10:07:59;;;;;;;3.78;2.60;;;;;;;17.94;69.15;99990.50;5053654;28;20448;-55
2022/06/26 10:10:44;;;;;;;4.97;2.55;;;;;;;17.96;68.97;99987.00;5054188;28;20064;-55
2022/06/26 10:13:33;;;;;;;10.68;2.60;;;;;;;17.98;68.95;99987.00;5039059;28;20621;-56
2022/06/26 10:16:35;;;;;;;5.07;2.83;;;;;;;18.00;68.93;99989.59;5053772;28;20056;-56
2022/06/26 10:19:34;;;;;;;5.57;3.05;;;;;;;17.98;69.11;99994.88;5054098;28;20047;-58
2022/06/26 10:22:18;;;;;;;4.55;2.53;;;;;;;18.02;68.83;100004.44;5038765;28;20044;-55
2022/06/26 10:25:02;;;;;;;6.78;3.20;;;;;;;18.02;69.12;99996.56;5053897;28;20055;-55
2022/06/26 10:27:46;;;;;;;5.65;2.83;;;;;;;18.02;68.78;99999.19;5053946;28;20110;-56
2022/06/26 10:30:31;;;;;;;6.00;2.72;;;;;;;18.02;68.96;99993.94;5053932;28;20047;-56
2022/06/26 10:33:16;;;;;;;;;;;;;;;18.01;69.15;99996.56;5053750;28;20052;-56
2022/06/26 10:36:02;;;;;;;4.80;2.60;;;;;;;18.00;68.99;99995.72;5038702;28;19920;-57
2022/06/26 10:38:45;;;;;;;4.15;2.58;;;;;;;18.02;69.18;99990.44;5053451;28;20102;-55
2022/06/26 10:44:50;;;;;;;3.13;2.50;;;;;;;18.02;69.31;99988.69;5052885;28;20420;-55
2022/06/26 10:47:49;;;;;;;5.28;2.53;;;;;;;18.03;69.06;99977.31;5038378;28;20064;-55
2022/06/26 10:50:38;;;;;;;4.32;2.40;;;;;;;18.03;69.42;99972.06;5038564;28;20163;-55
2022/06/26 10:53:22;;;;;;;6.78;2.65;;;;;;;18.05;69.28;99974.66;5038796;28;20044;-56
2022/06/26 10:56:07;;;;;;;3.17;2.45;;;;;;;18.07;69.20;99970.25;5038485;28;20107;-55
2022/06/26 10:58:59;;;;;;;5.70;2.55;;;;;;;18.07;69.20;99957.16;5038207;28;20044;-55
2022/06/26 11:01:44;;;;;;;5.13;2.38;;;;;;;18.08;69.28;99961.50;5053673;28;20546;-55
2022/06/26 11:04:27;;;;;;;7.50;2.60;;;;;;;18.07;69.40;99950.13;5038638;28;20044;-56
2022/06/26 11:07:18;;;;;;;7.90;2.78;;;;;;;18.09;69.24;99944.88;5053563;28;20052;-57
2022/06/26 11:10:03;;;;;;;4.30;2.58;;;;;;;18.08;69.48;99943.16;5038467;28;20035;-57
2022/06/26 11:12:51;;;;;;;5.75;2.78;;;;;;;18.07;69.33;99934.41;5038565;28;20055;-57
2022/06/26 11:15:36;;;;;;;8.23;3.10;;;;;;;18.08;69.22;99940.53;5037995;28;20047;-56
2022/06/26 11:18:20;;;;;;;4.88;2.42;;;;;;;18.09;69.27;99942.25;5056795;28;20051;-57
2022/06/26 11:21:05;;;;;;;6.28;3.03;;;;;;;18.09;68.96;99942.25;5042266;28;20519;-57
2022/06/26 11:23:51;;;;;;;4.70;2.60;;;;;;;18.08;69.37;99936.13;5041854;28;20412;-56
2022/06/26 11:26:35;;;;;;;5.65;2.65;;;;;;;18.09;69.41;99940.47;5042161;28;20055;-57
2022/06/26 11:29:19;;;;;;;7.65;2.58;;;;;;;18.10;69.52;99957.09;5057026;28;20051;-57
2022/06/26 11:32:04;;;;;;;2.53;2.00;;;;;;;18.10;69.53;99965.81;5041751;28;20048;-57
2022/06/26 11:34:56;;;;;;;3.75;2.45;;;;;;;18.10;69.49;99971.06;5041503;28;20044;-57
2022/06/26 11:37:42;;;;;;;4.57;2.30;;;;;;;18.10;69.39;99991.19;5041520;28;20519;-57
2022/06/26 11:40:27;;;;;;;5.72;2.63;;;;;;;18.09;69.37;99985.06;5056624;28;20056;-56
2022/06/26 11:43:12;;;;;;;6.03;2.72;;;;;;;18.06;69.16;99990.34;5041336;28;20418;-56
2022/06/26 11:45:57;;;;;;;3.55;2.50;;;;;;;18.07;69.15;99989.47;5041867;28;20527;-55
2022/06/26 11:48:41;;;;;;;5.93;2.47;;;;;;;18.07;69.14;99991.22;5041955;28;20052;-55
2022/06/26 11:51:29;;;;;;;3.33;2.60;;;;;;;18.07;69.37;99978.13;5056807;28;20040;-56
2022/06/26 11:54:25;;;;;;;3.80;2.85;;;;;;;18.06;69.16;99965.91;5041506;28;20128;-55
2022/06/26 11:57:12;;;;;;;4.43;2.40;;;;;;;18.06;69.10;99964.13;5055987;28;20048;-56
2022/06/26 11:59:56;;;;;;;4.25;2.80;;;;;;;18.07;68.89;99973.72;5041506;28;20577;-57
2022/06/26 12:02:43;;;;;;;3.95;2.50;;;;;;;18.05;69.23;99972.03;5056312;28;20068;-57
2022/06/26 12:05:28;;;;;;;6.10;2.72;;;;;;;18.05;68.92;99975.53;5041375;28;20534;-56
2022/06/26 12:08:17;;;;;;;7.30;2.67;;;;;;;18.06;69.28;99979.00;5056000;28;20423;-57
2022/06/26 12:11:02;;;;;;;3.83;2.47;;;;;;;18.06;68.93;99968.53;5041351;28;20110;-57
2022/06/26 12:13:46;;;;;;;5.47;2.42;;;;;;;18.06;68.96;99966.75;5056253;28;20059;-56
2022/06/26 12:16:30;;;;;;;4.53;2.40;;;;;;;18.06;69.22;99965.91;5055536;28;20052;-56
2022/06/26 12:19:14;;;;;;;4.15;2.72;;;;;;;18.04;69.11;99963.31;5056146;28;20063;-56
2022/06/26 12:21:58;;;;;;;3.92;2.33;;;;;;;18.05;68.90;99969.41;5041178;28;20052;-55
2022/06/26 12:24:54;;;;;;;2.88;2.30;;;;;;;18.05;69.22;99951.06;5040397;28;20502;-55
2022/06/26 12:27:43;;;;;;;4.75;2.65;;;;;;;18.07;69.13;99938.78;5040026;28;20048;-55
2022/06/26 12:30:33;;;;;;;3.47;2.50;;;;;;;18.09;68.99;99937.00;5040993;28;20140;-56
2022/06/26 12:33:17;;;;;;;5.22;2.78;;;;;;;18.08;69.04;99944.00;5040650;28;20048;-57
2022/06/26 12:36:02;;;;;;;4.57;2.60;;;;;;;18.10;69.19;99949.25;5055766;28;20052;-55
2022/06/26 12:38:46;;;;;;;3.63;2.75;;;;;;;18.13;69.31;99956.19;5055549;28;20052;-56
2022/06/26 12:41:30;;;;;;;5.60;3.00;;;;;;;18.13;69.15;99945.69;5055864;28;20056;-58
2022/06/26 12:44:14;;;;;;;4.40;2.50;;;;;;;18.14;69.24;99934.31;5055639;28;20056;-56
2022/06/26 12:46:58;;;;;;;5.50;2.80;;;;;;;18.14;69.06;99948.28;5055315;28;20118;-57
2022/06/26 12:49:42;;;;;;;4.53;2.75;;;;;;;18.15;69.19;99949.16;5055813;28;20087;-57
2022/06/26 12:52:26;;;;;;;3.83;2.30;;;;;;;18.15;69.31;99952.63;5055225;28;20679;-57
2022/06/26 12:55:10;;;;;;;7.65;3.25;;;;;;;18.16;68.87;99956.97;5055423;28;20044;-57
2022/06/26 12:57:54;;;;;;;5.25;2.80;;;;;;;18.16;69.14;99954.34;5054267;28;20052;-57
2022/06/26 13:00:38;;;;;;;4.28;2.33;;;;;;;18.16;68.88;99953.50;5056002;28;20044;-56
2022/06/26 13:03:23;;;;;;;7.10;3.08;;;;;;;18.16;69.08;99962.22;5039863;28;20060;-57
2022/06/26 13:06:07;;;;;;;4.15;2.40;;;;;;;18.16;68.96;99969.25;5055439;28;20044;-56
2022/06/26 13:08:51;;;;;;;8.00;2.92;;;;;;;18.18;68.89;99976.19;5054549;28;20102;-57
2022/06/26 13:11:37;;;;;;;4.47;2.25;;;;;;;18.16;68.99;99975.34;5054901;28;20039;-56
2022/06/26 13:14:21;;;;;;;3.28;2.40;;;;;;;18.16;68.72;99969.25;5055081;28;20052;-57